Time;durP1;ratioP1;P1;durP2;ratioP2;P2;SDS_P1;SDS_P2;PMS_P1;PMS_P2;Temp;Humidity;BMP_temperature;BMP_pressure;BME280_temperature;BME280_humidity;BME280_pressure;Samples;Min_cycle;Max_cycle;Signal;HPM_P1;HPM_P2
2023/07/19 03:57:10;;;;;;;;;;;15.50;99.90;;;;;;4593274;19;19919;-29
2023/07/19 03:58:45;;;;;;;;;;;15.50;99.90;;;;;;4590694;19;19923;-30
2023/07/19 04:00:16;;;;;;;;;;;15.50;99.90;;;;;;4590671;19;19911;-28
2023/07/19 04:01:48;;;;;;;;;;;15.50;99.90;;;;;;4589978;19;19941;-28
2023/07/19 04:03:20;;;;;;;;;;;15.50;99.90;;;;;;4590990;19;19923;-28
2023/07/19 04:04:51;;;;;;;;;;;15.50;99.90;;;;;;4590676;19;19915;-28
2023/07/19 04:06:22;;;;;;;;;;;15.50;99.90;;;;;;4590033;19;19918;-27
2023/07/19 04:07:54;;;;;;;;;;;15.50;99.90;;;;;;4591034;19;19937;-27
2023/07/19 04:09:25;;;;;;;;;;;15.50;99.90;;;;;;4589974;19;19922;-29
2023/07/19 04:10:58;;;;;;;;;;;15.60;99.90;;;;;;4590465;19;19918;-28
2023/07/19 04:12:29;;;;;;;;;;;15.60;99.90;;;;;;4590804;19;20300;-27
2023/07/19 04:14:01;;;;;;;;;;;15.60;99.90;;;;;;4590949;19;19923;-28
2023/07/19 04:15:33;;;;;;;;;;;15.60;99.90;;;;;;4589018;19;20278;-32
2023/07/19 04:17:07;;;;;;;;;;;15.70;99.90;;;;;;4590405;19;19918;-29
2023/07/19 04:18:38;;;;;;;;;;;15.70;99.90;;;;;;4591011;19;20329;-36
2023/07/19 04:20:10;;;;;;;;;;;15.80;99.90;;;;;;4589687;19;19918;-37
2023/07/19 04:21:42;;;;;;;;;;;15.80;99.90;;;;;;4590007;19;19955;-33
2023/07/19 04:23:13;;;;;;;;;;;15.80;99.90;;;;;;4590498;19;20315;-30
2023/07/19 04:24:44;;;;;;;;;;;15.80;99.90;;;;;;4590708;19;19914;-31
2023/07/19 04:26:16;;;;;;;;;;;15.80;99.90;;;;;;4590139;19;19923;-28
2023/07/19 04:27:47;;;;;;;;;;;15.80;99.90;;;;;;4589603;19;19915;-33
2023/07/19 04:29:19;;;;;;;;;;;15.90;99.90;;;;;;4590291;19;19911;-30
2023/07/19 04:30:50;;;;;;;;;;;15.90;99.90;;;;;;4590436;19;19921;-34
2023/07/19 04:32:21;;;;;;;;;;;15.80;99.90;;;;;;4590365;19;19919;-34
2023/07/19 04:33:52;;;;;;;;;;;15.90;99.90;;;;;;4589854;19;19943;-35
2023/07/19 04:35:24;;;;;;;;;;;15.90;99.90;;;;;;4589103;19;19954;-29
2023/07/19 04:36:55;;;;;;;;;;;15.90;99.90;;;;;;4587425;19;19970;-30
2023/07/19 04:38:26;;;;;;;;;;;16.00;99.90;;;;;;4586376;19;19939;-27
2023/07/19 04:39:58;;;;;;;;;;;16.00;99.90;;;;;;4588040;19;19929;-29
2023/07/19 04:41:29;;;;;;;;;;;16.10;99.90;;;;;;4590911;19;20241;-31
2023/07/19 04:43:01;;;;;;;;;;;16.10;99.90;;;;;;4589800;19;19929;-39
2023/07/19 04:44:32;;;;;;;;;;;16.10;99.90;;;;;;4590028;19;19915;-33
2023/07/19 04:46:04;;;;;;;;;;;16.10;99.90;;;;;;4588664;19;19915;-36
2023/07/19 04:47:37;;;;;;;;;;;16.20;99.90;;;;;;4589453;19;19933;-34
2023/07/19 04:49:08;;;;;;;;;;;16.20;99.90;;;;;;4592308;19;19945;-28
2023/07/19 04:50:39;;;;;;;;;;;16.20;99.90;;;;;;4593032;19;19923;-27
2023/07/19 04:52:10;;;;;;;;;;;16.30;99.90;;;;;;4593133;19;19923;-31
2023/07/19 04:53:42;;;;;;;;;;;16.30;99.90;;;;;;4592909;19;19931;-27
2023/07/19 04:55:13;;;;;;;;;;;16.30;99.90;;;;;;4595783;19;19926;-27
2023/07/19 04:56:44;;;;;;;;;;;16.40;99.90;;;;;;4594427;19;19934;-36
2023/07/19 04:58:15;;;;;;;;;;;16.40;99.90;;;;;;4594761;19;19933;-28
2023/07/19 04:59:46;;;;;;;;;;;16.40;99.90;;;;;;4593481;19;19923;-29
2023/07/19 05:01:17;;;;;;;;;;;16.40;99.90;;;;;;4592518;19;19915;-36
2023/07/19 05:02:48;;;;;;;;;;;16.50;99.90;;;;;;4592937;19;20644;-29
2023/07/19 05:04:20;;;;;;;;;;;16.60;99.90;;;;;;4594970;19;19915;-28
2023/07/19 05:05:51;;;;;;;;;;;16.60;99.90;;;;;;4594431;19;19933;-33
2023/07/19 05:07:22;;;;;;;;;;;16.60;99.90;;;;;;4593141;19;20280;-35
2023/07/19 05:08:53;;;;;;;;;;;16.60;99.90;;;;;;4593487;19;19992;-27
2023/07/19 05:10:24;;;;;;;;;;;16.70;99.90;;;;;;4592642;19;19914;-35
2023/07/19 05:11:55;;;;;;;;;;;16.70;99.90;;;;;;4592856;19;19919;-36
2023/07/19 05:13:26;;;;;;;;;;;16.70;99.90;;;;;;4592844;19;20356;-34
2023/07/19 05:14:57;;;;;;;;;;;16.80;99.90;;;;;;4592587;19;19922;-30
2023/07/19 05:16:28;;;;;;;;;;;16.80;99.90;;;;;;4591749;19;19923;-27
2023/07/19 05:18:00;;;;;;;;;;;16.80;99.90;;;;;;4594463;19;19990;-29
2023/07/19 05:19:31;;;;;;;;;;;16.80;99.90;;;;;;4594549;19;19923;-34
2023/07/19 05:21:03;;;;;;;;;;;16.90;99.90;;;;;;4594153;19;19918;-29
2023/07/19 05:22:33;;;;;;;;;;;16.90;99.90;;;;;;4594434;19;20347;-32
2023/07/19 05:24:06;;;;;;;;;;;16.90;99.90;;;;;;4593289;19;19926;-29
2023/07/19 05:25:37;;;;;;;;;;;17.00;99.90;;;;;;4592671;19;19919;-30
2023/07/19 05:27:08;;;;;;;;;;;17.00;99.90;;;;;;4592710;19;19937;-35
2023/07/19 05:28:39;;;;;;;;;;;17.00;99.90;;;;;;4592721;19;19932;-28
2023/07/19 05:30:10;;;;;;;;;;;17.10;99.90;;;;;;4589888;19;19922;-28
2023/07/19 05:31:41;;;;;;;;;;;17.10;99.90;;;;;;4591290;19;20232;-28
2023/07/19 05:33:12;;;;;;;;;;;17.10;99.90;;;;;;4594449;19;19915;-27
2023/07/19 05:34:43;;;;;;;;;;;17.10;99.90;;;;;;4594083;19;19914;-37
2023/07/19 05:36:14;;;;;;;;;;;17.20;99.90;;;;;;4593681;19;19986;-32
2023/07/19 05:37:45;;;;;;;;;;;17.30;99.90;;;;;;4593270;19;19918;-28
2023/07/19 05:39:16;;;;;;;;;;;17.30;99.90;;;;;;4593294;19;19922;-28
2023/07/19 05:40:47;;;;;;;;;;;17.30;99.90;;;;;;4592507;19;19915;-33
2023/07/19 05:42:18;;;;;;;;;;;17.40;99.90;;;;;;4591112;19;19926;-27
2023/07/19 05:43:49;;;;;;;;;;;17.50;99.90;;;;;;4591286;19;19929;-28
2023/07/19 05:45:20;;;;;;;;;;;17.50;99.90;;;;;;4591432;19;19918;-30
2023/07/19 05:46:52;;;;;;;;;;;17.50;99.90;;;;;;4591845;19;19915;-28
2023/07/19 05:48:24;;;;;;;;;;;17.60;99.90;;;;;;4591909;19;19933;-28
2023/07/19 05:49:55;;;;;;;;;;;17.60;99.90;;;;;;4591613;19;19918;-30
2023/07/19 05:51:26;;;;;;;;;;;17.70;99.90;;;;;;4591092;19;19953;-30
2023/07/19 05:52:58;;;;;;;;;;;17.70;99.90;;;;;;4590576;19;19915;-28
2023/07/19 05:54:30;;;;;;;;;;;17.70;99.90;;;;;;4590103;19;19907;-27
2023/07/19 05:56:01;;;;;;;;;;;17.80;99.90;;;;;;4589722;19;19915;-29
2023/07/19 05:57:32;;;;;;;;;;;17.80;99.90;;;;;;4589453;19;19930;-28
2023/07/19 05:59:04;;;;;;;;;;;17.80;99.90;;;;;;4591240;19;19907;-28
2023/07/19 06:00:35;;;;;;;;;;;17.90;99.90;;;;;;4591329;19;20011;-29
2023/07/19 06:02:06;;;;;;;;;;;17.90;99.90;;;;;;4590720;19;19919;-29
2023/07/19 06:03:37;;;;;;;;;;;18.00;99.90;;;;;;4590078;19;19914;-35
2023/07/19 19:20:37;;;;;;;;;;;21.30;99.90;;;;;;4577521;19;20867;-25
2023/07/19 19:22:09;;;;;;;;;;;21.30;99.90;;;;;;4591007;19;19910;-25
2023/07/19 19:23:40;;;;;;;;;;;21.20;99.90;;;;;;4590683;19;19926;-26
2023/07/19 19:25:11;;;;;;;;;;;21.30;99.90;;;;;;4590619;19;20257;-30
2023/07/19 19:26:47;;;;;;;;;;;21.30;99.90;;;;;;4589102;19;19940;-25
2023/07/19 20:41:26;;;;;;;;;;;21.70;99.90;;;;;;4590380;19;19911;-25
2023/07/19 20:45:08;;;;;;;;;;;21.60;99.90;;;;;;4593943;19;20408;-25
2023/07/19 20:46:39;;;;;;;;;;;21.60;99.90;;;;;;4593779;19;19914;-27
2023/07/19 20:48:10;;;;;;;;;;;21.60;99.90;;;;;;4593626;19;19926;-27
2023/07/19 20:52:05;;;;;;;;;;;21.60;99.90;;;;;;4594828;19;19990;-26
2023/07/19 20:53:36;;;;;;;;;;;21.60;99.90;;;;;;4595103;19;20427;-25
2023/07/19 20:55:07;;;;;;;;;;;21.60;99.90;;;;;;4594389;19;20330;-25
2023/07/19 20:56:38;;;;;;;;;;;21.60;99.90;;;;;;4594129;19;20257;-26
2023/07/19 20:58:10;;;;;;;;;;;21.60;99.90;;;;;;4593363;19;19915;-26
2023/07/19 20:59:41;;;;;;;;;;;21.60;99.90;;;;;;4594161;19;20293;-27
2023/07/19 21:01:12;;;;;;;;;;;21.60;99.90;;;;;;4594163;19;19915;-25
2023/07/19 21:04:52;;;;;;;;;;;21.50;99.90;;;;;;4594333;19;20386;-24
2023/07/19 21:06:26;;;;;;;;;;;21.60;99.90;;;;;;4591630;19;19927;-26
2023/07/19 21:07:57;;;;;;;;;;;21.60;99.90;;;;;;4594741;19;19941;-28
2023/07/19 21:09:28;;;;;;;;;;;21.50;99.90;;;;;;4594905;19;20268;-25
2023/07/19 21:10:59;;;;;;;;;;;21.60;99.90;;;;;;4594020;19;19915;-26
2023/07/19 21:12:31;;;;;;;;;;;21.50;99.90;;;;;;4591668;19;19915;-31
2023/07/19 21:14:03;;;;;;;;;;;21.50;99.90;;;;;;4592258;19;20653;-27
2023/07/19 21:15:34;;;;;;;;;;;21.50;99.90;;;;;;4593791;19;19915;-28
2023/07/19 21:17:06;;;;;;;;;;;21.50;99.90;;;;;;4593428;19;21281;-28
2023/07/19 21:18:37;;;;;;;;;;;21.50;99.90;;;;;;4595282;19;20442;-26
2023/07/19 21:20:08;;;;;;;;;;;21.50;99.90;;;;;;4594332;19;19921;-25
2023/07/19 21:21:39;;;;;;;;;;;21.50;99.90;;;;;;4592181;19;19915;-25
2023/07/19 21:23:11;;;;;;;;;;;21.50;99.90;;;;;;4593378;19;19945;-29
2023/07/19 21:24:42;;;;;;;;;;;21.50;99.90;;;;;;4593501;19;19930;-25
2023/07/19 21:26:14;;;;;;;;;;;21.50;99.90;;;;;;4594258;19;19919;-25
2023/07/19 21:27:45;;;;;;;;;;;21.50;99.90;;;;;;4593835;19;20415;-25
2023/07/19 21:29:16;;;;;;;;;;;21.40;99.90;;;;;;4593585;19;20001;-30
2023/07/19 21:30:47;;;;;;;;;;;21.50;99.90;;;;;;4592503;19;20355;-25
2023/07/19 21:32:25;;;;;;;;;;;21.40;99.90;;;;;;4592595;19;19940;-28
2023/07/19 21:34:01;;;;;;;;;;;21.40;99.90;;;;;;4594231;19;19925;-26
2023/07/19 21:35:34;;;;;;;;;;;21.40;99.90;;;;;;4592176;19;19919;-26
2023/07/19 21:37:06;;;;;;;;;;;21.40;99.90;;;;;;4593311;19;19978;-26
2023/07/19 21:38:37;;;;;;;;;;;21.40;99.90;;;;;;4592951;19;19926;-25
2023/07/19 21:40:08;;;;;;;;;;;21.40;99.90;;;;;;4592222;19;19915;-27
2023/07/19 21:41:40;;;;;;;;;;;21.40;99.90;;;;;;4593663;19;19906;-30
2023/07/19 21:43:11;;;;;;;;;;;21.40;99.90;;;;;;4592240;19;19918;-29
2023/07/19 21:44:43;;;;;;;;;;;21.40;99.90;;;;;;4593386;19;19919;-25
2023/07/19 21:46:14;;;;;;;;;;;21.40;99.90;;;;;;4592086;19;19929;-25
2023/07/19 21:47:45;;;;;;;;;;;21.40;99.90;;;;;;4594472;19;20015;-24
2023/07/19 21:49:16;;;;;;;;;;;21.40;99.90;;;;;;4592423;19;19922;-28
2023/07/19 21:50:47;;;;;;;;;;;21.40;99.90;;;;;;4591742;19;19941;-27
2023/07/19 21:52:18;;;;;;;;;;;21.40;99.90;;;;;;4594079;19;20269;-27
2023/07/19 21:53:49;;;;;;;;;;;21.30;99.90;;;;;;4593384;19;19922;-30
2023/07/19 21:55:20;;;;;;;;;;;21.40;99.90;;;;;;4593582;19;19918;-26
2023/07/19 21:56:51;;;;;;;;;;;21.40;99.90;;;;;;4593362;19;20293;-30
2023/07/19 21:58:26;;;;;;;;;;;21.30;99.90;;;;;;4591393;19;19941;-25
2023/07/19 21:59:57;;;;;;;;;;;21.30;99.90;;;;;;4591304;19;19919;-26
2023/07/19 22:01:28;;;;;;;;;;;21.30;99.90;;;;;;4590433;19;20013;-30
2023/07/19 22:02:59;;;;;;;;;;;21.40;99.90;;;;;;4591973;19;19918;-25
2023/07/19 22:04:30;;;;;;;;;;;21.30;99.90;;;;;;4590577;19;19918;-25
2023/07/19 22:06:01;;;;;;;;;;;21.30;99.90;;;;;;4591346;19;20352;-25
2023/07/19 22:07:33;;;;;;;;;;;21.30;99.90;;;;;;4591215;19;19944;-25
2023/07/19 22:09:04;;;;;;;;;;;21.30;99.90;;;;;;4591843;19;19946;-25
2023/07/19 22:10:36;;;;;;;;;;;21.30;99.90;;;;;;4590878;19;20220;-28
2023/07/19 22:12:08;;;;;;;;;;;21.30;99.90;;;;;;4589941;19;20390;-27
2023/07/19 22:13:41;;;;;;;;;;;21.30;99.90;;;;;;4591711;19;20303;-25
2023/07/19 22:15:13;;;;;;;;;;;21.30;99.90;;;;;;4590485;19;19933;-26
2023/07/19 22:16:44;;;;;;;;;;;21.30;99.90;;;;;;4591134;19;19959;-28
2023/07/19 22:18:21;;;;;;;;;;;21.30;99.90;;;;;;4590589;19;19923;-26
2023/07/19 22:19:52;;;;;;;;;;;21.30;99.90;;;;;;4590364;19;19914;-25
2023/07/19 22:21:23;;;;;;;;;;;21.30;99.90;;;;;;4590175;19;19934;-26
2023/07/19 22:22:54;;;;;;;;;;;21.40;99.90;;;;;;4591875;19;19922;-25
2023/07/19 22:24:25;;;;;;;;;;;21.30;99.90;;;;;;4591087;19;19915;-30
2023/07/19 22:25:56;;;;;;;;;;;21.40;99.90;;;;;;4590341;19;20383;-25
2023/07/19 22:27:27;;;;;;;;;;;21.40;99.90;;;;;;4590905;19;20248;-25
2023/07/19 22:29:02;;;;;;;;;;;21.40;99.90;;;;;;4590669;19;19974;-26
2023/07/19 22:30:34;;;;;;;;;;;21.40;99.90;;;;;;4590949;19;19914;-25
2023/07/19 22:32:06;;;;;;;;;;;21.40;99.90;;;;;;4592523;19;20328;-28
2023/07/19 22:33:37;;;;;;;;;;;21.30;99.90;;;;;;4592609;19;19915;-27
2023/07/19 22:35:09;;;;;;;;;;;21.40;99.90;;;;;;4592976;19;19978;-25
2023/07/19 22:36:41;;;;;;;;;;;21.30;99.90;;;;;;4593341;19;19978;-25
2023/07/19 22:38:14;;;;;;;;;;;21.40;99.90;;;;;;4591277;19;19987;-28
2023/07/19 22:39:46;;;;;;;;;;;21.40;99.90;;;;;;4592647;19;19918;-25
2023/07/19 22:41:18;;;;;;;;;;;21.30;99.90;;;;;;4593383;19;20361;-27
2023/07/19 22:42:49;;;;;;;;;;;21.30;99.90;;;;;;4591558;19;19918;-25
2023/07/19 22:44:21;;;;;;;;;;;21.40;99.90;;;;;;4592566;19;20005;-25
2023/07/19 22:45:52;;;;;;;;;;;21.40;99.90;;;;;;4592891;19;19927;-30
2023/07/19 22:47:22;;;;;;;;;;;21.40;99.90;;;;;;4591473;19;19915;-25
2023/07/19 22:48:56;;;;;;;;;;;21.30;99.90;;;;;;4592663;19;19921;-30
2023/07/19 22:50:29;;;;;;;;;;;21.30;99.90;;;;;;4592536;19;19933;-25
2023/07/19 22:51:59;;;;;;;;;;;21.40;99.90;;;;;;4592376;19;19915;-27
2023/07/19 22:53:32;;;;;;;;;;;21.40;99.90;;;;;;4593299;19;20363;-26
2023/07/19 22:55:04;;;;;;;;;;;21.30;99.90;;;;;;4591060;19;19919;-23
2023/07/19 22:56:35;;;;;;;;;;;21.30;99.90;;;;;;4591848;19;20276;-22
2023/07/19 22:58:06;;;;;;;;;;;21.30;99.90;;;;;;4592805;19;20252;-28
2023/07/19 22:59:37;;;;;;;;;;;21.30;99.90;;;;;;4592529;19;19936;-24
2023/07/19 23:01:08;;;;;;;;;;;21.30;99.90;;;;;;4591192;19;20016;-25
2023/07/19 23:02:39;;;;;;;;;;;21.30;99.90;;;;;;4592167;19;20279;-24
2023/07/19 23:04:13;;;;;;;;;;;21.30;99.90;;;;;;4592105;19;20248;-25
2023/07/19 23:05:44;;;;;;;;;;;21.20;99.90;;;;;;4592424;19;19921;-25
2023/07/19 23:07:15;;;;;;;;;;;21.20;99.90;;;;;;4590710;19;19918;-28
2023/07/19 23:08:48;;;;;;;;;;;21.30;99.90;;;;;;4592454;19;20262;-25
2023/07/19 23:10:20;;;;;;;;;;;21.30;99.90;;;;;;4592591;19;19919;-26
2023/07/19 23:11:54;;;;;;;;;;;21.20;99.90;;;;;;4590914;19;19923;-25
2023/07/19 23:13:24;;;;;;;;;;;21.30;99.90;;;;;;4591603;19;19928;-24
2023/07/19 23:14:56;;;;;;;;;;;21.30;99.90;;;;;;4592099;19;20263;-25
2023/07/19 23:16:29;;;;;;;;;;;21.30;99.90;;;;;;4589540;19;19911;-26
2023/07/19 23:18:01;;;;;;;;;;;21.20;99.90;;;;;;4591102;19;20350;-25
2023/07/19 23:19:36;;;;;;;;;;;21.20;99.90;;;;;;4591603;19;19914;-25
2023/07/19 23:21:08;;;;;;;;;;;21.20;99.90;;;;;;4590966;19;20303;-25
2023/07/19 23:22:39;;;;;;;;;;;21.20;99.90;;;;;;4590692;19;19951;-27
2023/07/19 23:24:10;;;;;;;;;;;21.20;99.90;;;;;;4591314;19;19930;-24
2023/07/19 23:25:41;;;;;;;;;;;21.20;99.90;;;;;;4591796;19;19915;-24
2023/07/19 23:27:15;;;;;;;;;;;21.20;99.90;;;;;;4591189;19;19939;-26
2023/07/19 23:28:45;;;;;;;;;;;21.20;99.90;;;;;;4592508;19;19978;-25
2023/07/19 23:30:17;;;;;;;;;;;21.20;99.90;;;;;;4591693;19;20324;-25
2023/07/19 23:31:50;;;;;;;;;;;21.10;99.90;;;;;;4591882;19;19919;-25
2023/07/19 23:33:21;;;;;;;;;;;21.20;99.90;;;;;;4592083;19;19919;-25
2023/07/19 23:34:52;;;;;;;;;;;21.20;99.90;;;;;;4592108;19;19919;-26
2023/07/19 23:36:23;;;;;;;;;;;21.20;99.90;;;;;;4591638;19;19914;-29
2023/07/19 23:37:56;;;;;;;;;;;21.20;99.90;;;;;;4590375;19;20276;-26
2023/07/19 23:39:28;;;;;;;;;;;21.20;99.90;;;;;;4591163;19;19919;-25
2023/07/19 23:40:59;;;;;;;;;;;21.20;99.90;;;;;;4590123;19;19915;-25
2023/07/19 23:42:30;;;;;;;;;;;21.20;99.90;;;;;;4590195;19;20237;-27
2023/07/19 23:44:03;;;;;;;;;;;21.20;99.90;;;;;;4590470;19;19923;-28
2023/07/19 23:45:34;;;;;;;;;;;21.20;99.90;;;;;;4591184;19;19922;-26
2023/07/19 23:47:11;;;;;;;;;;;21.20;99.90;;;;;;4590218;19;20295;-27
2023/07/19 23:48:43;;;;;;;;;;;21.20;99.90;;;;;;4591651;19;19918;-25
2023/07/19 23:50:14;;;;;;;;;;;21.10;99.90;;;;;;4591630;19;19918;-24
2023/07/19 23:51:45;;;;;;;;;;;21.10;99.90;;;;;;4590153;19;19982;-27
2023/07/19 23:53:16;;;;;;;;;;;21.10;99.90;;;;;;4589608;19;19923;-26
2023/07/19 23:54:49;;;;;;;;;;;21.10;99.90;;;;;;4591509;19;19978;-25
2023/07/19 23:56:20;;;;;;;;;;;21.10;99.90;;;;;;4591891;19;19911;-25
2023/07/19 23:57:51;;;;;;;;;;;21.10;99.90;;;;;;4591701;19;20260;-29
2023/07/19 23:59:22;;;;;;;;;;;21.10;99.90;;;;;;4589886;19;19919;-24
